Terminal Aerodrome Forecast
Issued by NWS

Home | Current Version | Previous Version | Text Only | Print | Product List | Glossary On
Versions: 1 2 3 4 5 6 7 8 9 10 11 12 13 14 15 16 17 18 19 20 21 22 23 24 25
000
FTUS43 KDTX 280520
TAFMBS
TAF
KMBS 280520Z 2806/2906 19004KT P6SM SKC
     FM281100 VRB03KT 4SM BR SCT250
     FM281400 20005KT P6SM SCT045 SCT250
     FM282100 22006KT P6SM BKN050 BKN250=

USA.gov is the U.S. government's official web portal to all federal, state and local government web resources and services.